createdAt,value
2018-05-04T00:01:24.461Z,87.50
2018-05-04T00:03:53.525Z,87.90
2018-05-04T00:06:22.607Z,87.80
2018-05-04T00:08:51.642Z,87.50
2018-05-04T00:11:20.689Z,88.00
2018-05-04T00:13:49.761Z,87.30
2018-05-04T00:16:19.578Z,87.90
2018-05-04T00:18:49.381Z,87.80
2018-05-04T00:21:19.200Z,87.10
2018-05-04T00:23:49.018Z,86.90
2018-05-04T00:26:18.057Z,86.90
2018-05-04T00:28:47.301Z,87.10
2018-05-04T00:31:17.142Z,87.10
2018-05-04T00:33:46.175Z,87.10
2018-05-04T00:36:15.228Z,87.60
2018-05-04T00:38:44.302Z,87.10
2018-05-04T00:41:14.129Z,88.10
2018-05-04T00:43:43.171Z,88.10
2018-05-04T00:46:12.523Z,88.10
2018-05-04T00:48:41.561Z,86.90
2018-05-04T00:51:10.609Z,87.10
2018-05-04T00:53:58.084Z,87.00
2018-05-04T00:56:27.138Z,87.00
2018-05-04T00:58:56.181Z,87.50
2018-05-04T01:01:25.353Z,87.90
2018-05-04T01:03:54.397Z,86.30
2018-05-04T01:06:24.200Z,86.40
2018-05-04T01:08:54.040Z,87.20
2018-05-04T01:11:23.097Z,87.20
2018-05-04T01:13:52.141Z,87.80
2018-05-04T01:16:21.226Z,87.80
2018-05-04T01:18:50.262Z,87.30
2018-05-04T01:21:19.321Z,87.10
2018-05-04T01:23:49.240Z,88.10
2018-05-04T01:26:18.301Z,88.10
2018-05-04T01:28:47.600Z,88.30
2018-05-04T01:31:17.449Z,88.60
2018-05-04T01:33:46.484Z,88.40
2018-05-04T01:36:15.528Z,88.10
2018-05-04T01:38:44.608Z,87.60
2018-05-04T01:41:14.413Z,87.20
2018-05-04T01:43:44.225Z,87.30
2018-05-04T01:46:14.029Z,86.90
2018-05-04T01:48:43.845Z,87.50
2018-05-04T01:51:13.651Z,87.50
2018-05-04T01:53:43.473Z,86.50
2018-05-04T01:56:13.313Z,86.30
2018-05-04T01:58:42.349Z,86.20
2018-05-04T02:01:11.405Z,85.80
2018-05-04T02:03:40.492Z,87.50
2018-05-04T02:06:09.547Z,87.60
2018-05-04T02:08:38.586Z,88.10
2018-05-04T02:11:07.667Z,88.10
2018-05-04T02:13:36.717Z,88.00
2018-05-04T02:16:05.751Z,87.60
2018-05-04T02:18:34.827Z,86.80
2018-05-04T02:21:04.647Z,86.30
2018-05-04T02:23:34.462Z,86.20
2018-05-04T02:26:04.265Z,86.50
2018-05-04T02:28:34.092Z,86.90
2018-05-04T02:31:04.172Z,87.80
2018-05-04T02:33:33.190Z,87.80
2018-05-04T02:36:03.032Z,88.00
2018-05-04T02:38:32.085Z,87.80
2018-05-04T02:41:01.108Z,87.00
2018-05-04T02:43:30.276Z,86.90
2018-05-04T02:45:59.322Z,87.50
2018-05-04T02:48:28.367Z,88.30
2018-05-04T02:50:58.196Z,88.90
2018-05-04T02:53:28.017Z,87.70
2018-05-04T02:55:57.051Z,87.70
2018-05-04T02:58:26.185Z,87.40
2018-05-04T03:00:55.212Z,87.50
2018-05-04T03:03:24.267Z,87.30
2018-05-04T03:05:53.349Z,86.90
2018-05-04T03:08:22.400Z,86.90
2018-05-04T03:10:51.446Z,87.40
2018-05-04T03:13:20.519Z,88.00
2018-05-04T03:15:49.560Z,88.30
2018-05-04T03:18:19.363Z,88.50
2018-05-04T03:20:49.205Z,88.30
2018-05-04T03:23:18.256Z,88.30
2018-05-04T03:25:47.292Z,88.00
2018-05-04T03:28:16.557Z,88.70
2018-05-04T03:30:46.363Z,88.20
2018-05-04T03:33:15.432Z,88.20
2018-05-04T03:35:44.532Z,89.00
2018-05-04T03:38:13.577Z,89.30
2018-05-04T03:40:42.635Z,88.90
2018-05-04T03:43:11.717Z,89.30
2018-05-04T03:45:40.760Z,89.10
2018-05-04T03:48:09.809Z,90.00
2018-05-04T03:50:39.784Z,89.40
2018-05-04T03:53:08.826Z,89.10
2018-05-04T03:55:37.881Z,88.80
2018-05-04T03:58:24.641Z,88.60
2018-05-04T04:01:12.318Z,90.10
2018-05-04T04:17:18.010Z,89.40
2018-05-04T04:19:47.841Z,89.80
2018-05-04T04:22:16.917Z,89.80
2018-05-04T04:24:46.756Z,90.30
2018-05-04T04:27:15.808Z,90.30
2018-05-04T04:29:44.876Z,90.40
2018-05-04T04:32:13.983Z,90.40
2018-05-04T04:34:43.065Z,90.50
2018-05-04T04:37:12.113Z,90.50
2018-05-04T04:39:41.983Z,90.70
2018-05-04T04:42:11.108Z,90.70
2018-05-04T04:44:40.151Z,90.80
2018-05-04T04:47:09.223Z,90.80
2018-05-04T04:49:38.260Z,90.80
2018-05-04T04:52:07.657Z,90.80
2018-05-04T04:54:36.744Z,91.20
2018-05-04T04:57:05.789Z,91.30
2018-05-04T04:59:35.605Z,91.10
2018-05-04T05:02:05.546Z,91.30
2018-05-04T05:04:34.602Z,91.30
2018-05-04T05:07:03.642Z,91.40
2018-05-04T05:09:32.741Z,91.40
2018-05-04T05:12:01.785Z,91.40
2018-05-04T05:14:31.621Z,91.50
2018-05-04T05:17:00.669Z,91.50
2018-05-04T05:19:30.508Z,91.80
2018-05-04T05:22:00.408Z,91.70
2018-05-04T05:24:29.409Z,91.70
2018-05-04T05:26:59.286Z,91.90
2018-05-04T05:29:28.411Z,91.90
2018-05-04T05:31:57.396Z,92.00
2018-05-04T05:34:26.480Z,91.90
2018-05-04T05:36:55.565Z,91.30
2018-05-04T05:39:24.620Z,91.20
2018-05-04T05:41:53.716Z,90.90
2018-05-04T05:44:22.780Z,90.60
2018-05-04T05:46:51.827Z,90.40
2018-05-04T05:49:20.922Z,90.20
2018-05-04T05:51:50.073Z,90.90
2018-05-04T05:54:19.824Z,91.00
2018-05-04T05:56:49.720Z,91.00
2018-05-04T05:59:18.821Z,90.70
2018-05-04T06:01:47.862Z,90.80
2018-05-04T06:04:16.946Z,90.90
2018-05-04T06:06:46.025Z,90.90
2018-05-04T06:09:15.138Z,91.20
2018-05-04T06:11:44.940Z,91.50
2018-05-04T06:14:13.978Z,91.40
2018-05-04T06:16:43.821Z,92.10
2018-05-04T06:19:12.874Z,91.70
2018-05-04T06:21:41.969Z,91.70
2018-05-04T06:24:11.008Z,91.90
2018-05-04T06:26:40.093Z,92.10
2018-05-04T06:29:09.140Z,92.40
2018-05-04T06:31:38.239Z,92.20
2018-05-04T06:34:07.316Z,92.00
2018-05-04T06:36:36.379Z,92.00
2018-05-04T06:39:06.339Z,91.70
2018-05-04T06:41:35.424Z,92.00
2018-05-04T06:44:04.493Z,91.60
2018-05-04T06:46:33.565Z,91.60
2018-05-04T06:49:03.395Z,91.80
2018-05-04T06:51:32.469Z,91.70
2018-05-04T06:54:02.289Z,90.60
2018-05-04T06:56:31.364Z,90.60
2018-05-04T06:59:01.192Z,91.30
2018-05-04T07:01:30.269Z,91.30
2018-05-04T07:04:00.125Z,91.30
2018-05-04T07:06:29.192Z,91.30
2018-05-04T07:08:58.344Z,91.20
2018-05-04T07:11:27.321Z,91.30
2018-05-04T07:13:56.394Z,89.90
2018-05-04T07:16:25.442Z,87.70
2018-05-04T07:18:54.524Z,89.70
2018-05-04T07:21:23.569Z,88.50
2018-05-04T07:23:52.653Z,90.20
2018-05-04T07:26:22.470Z,89.80
2018-05-04T07:28:51.547Z,89.80
2018-05-04T07:31:21.374Z,88.50
2018-05-04T07:33:50.449Z,87.90
2018-05-04T07:36:20.349Z,89.10
2018-05-04T07:38:49.386Z,89.10
2018-05-04T07:41:18.461Z,89.40
2018-05-04T07:43:48.278Z,90.00
2018-05-04T07:46:18.125Z,87.00
2018-05-04T07:48:47.186Z,87.10
2018-05-04T07:51:17.027Z,86.80
2018-05-04T07:53:46.090Z,86.70
2018-05-04T07:56:16.712Z,84.20
2018-05-04T07:58:46.537Z,84.40
2018-05-04T08:01:16.374Z,85.20
2018-05-04T08:03:45.434Z,85.10
2018-05-04T08:06:15.242Z,83.20
2018-05-04T08:08:45.071Z,82.60
2018-05-04T08:11:14.918Z,82.40
2018-05-04T08:13:43.968Z,82.30
2018-05-04T08:16:13.826Z,80.20
2018-05-04T08:18:42.884Z,80.30
2018-05-04T08:21:12.719Z,80.10
2018-05-04T08:23:41.758Z,80.00
2018-05-04T08:26:10.827Z,79.00
2018-05-04T08:28:39.902Z,79.80
2018-05-04T08:31:08.940Z,78.50
2018-05-04T08:33:38.048Z,79.10
2018-05-04T08:36:07.082Z,76.30
2018-05-04T08:38:36.157Z,78.90
2018-05-04T08:41:06.103Z,77.40
2018-05-04T08:43:35.155Z,77.20
2018-05-04T08:46:04.976Z,74.00
2018-05-04T08:48:34.818Z,74.70
2018-05-04T08:51:03.920Z,74.50
2018-05-04T08:53:33.732Z,71.60
2018-05-04T08:56:02.812Z,71.60
2018-05-04T08:58:31.856Z,66.70
2018-05-04T09:01:00.961Z,68.20
2018-05-04T09:03:30.005Z,69.70
2018-05-04T09:05:59.797Z,69.60
2018-05-04T09:08:28.876Z,68.50
2018-05-04T09:10:58.708Z,68.40
2018-05-04T09:13:27.860Z,68.40
2018-05-04T09:15:57.640Z,59.60
2018-05-04T09:18:26.721Z,59.70
2018-05-04T09:20:55.793Z,59.30
2018-05-04T09:23:25.601Z,58.80
2018-05-04T09:25:55.455Z,56.20
2018-05-04T09:28:24.531Z,56.20
2018-05-04T09:30:53.616Z,56.30
2018-05-04T09:33:23.468Z,50.00
2018-05-04T09:35:52.506Z,50.00
2018-05-04T09:38:22.365Z,50.70
2018-05-04T09:40:51.406Z,50.70
2018-05-04T09:43:20.546Z,52.70
2018-05-04T09:45:49.540Z,52.40
2018-05-04T09:48:18.591Z,50.70
2018-05-04T09:50:47.660Z,51.80
2018-05-04T09:53:16.725Z,47.80
2018-05-04T09:55:45.769Z,48.30
2018-05-04T09:58:14.840Z,50.80
2018-05-04T10:00:43.942Z,46.10
2018-05-04T10:03:12.989Z,46.00
2018-05-04T10:05:42.066Z,45.30
2018-05-04T10:08:11.911Z,42.60
2018-05-04T10:10:40.965Z,42.60
2018-05-04T10:13:10.800Z,39.80
2018-05-04T10:15:39.853Z,39.80
2018-05-04T10:18:08.937Z,39.80
2018-05-04T10:20:38.011Z,38.50
2018-05-04T10:23:07.076Z,38.30
2018-05-04T10:25:36.146Z,40.30
2018-05-04T10:28:05.203Z,39.30
2018-05-04T10:30:34.287Z,37.30
2018-05-04T10:33:03.357Z,37.00
2018-05-04T10:35:32.407Z,40.50
2018-05-04T10:38:01.440Z,39.30
2018-05-04T10:40:30.505Z,39.60
2018-05-04T10:42:59.632Z,35.60
2018-05-04T10:45:28.665Z,34.70
2018-05-04T10:47:57.722Z,35.90
2018-05-04T10:50:26.800Z,36.40
2018-05-04T10:52:56.619Z,35.80
2018-05-04T10:55:26.472Z,35.80
2018-05-04T10:57:55.505Z,35.60
2018-05-04T11:00:24.553Z,37.40
2018-05-04T11:02:53.636Z,35.20
2018-05-04T11:05:22.772Z,36.20
2018-05-04T11:07:52.836Z,36.00
2018-05-04T11:10:21.874Z,34.70
2018-05-04T11:12:50.948Z,33.80
2018-05-04T11:15:20.025Z,32.10
2018-05-04T11:17:49.122Z,29.60
2018-05-04T11:20:18.184Z,29.20
2018-05-04T11:22:47.264Z,29.40
2018-05-04T11:25:16.337Z,29.40
2018-05-04T11:27:45.378Z,28.90
2018-05-04T11:30:15.237Z,28.90
2018-05-04T11:32:44.268Z,28.80
2018-05-04T11:35:13.336Z,28.70
2018-05-04T11:37:42.397Z,28.00
2018-05-04T11:40:11.571Z,27.70
2018-05-04T11:42:41.393Z,28.40
2018-05-04T11:45:10.461Z,28.30
2018-05-04T11:47:39.513Z,28.50
2018-05-04T11:50:08.585Z,28.60
2018-05-04T11:52:37.654Z,27.40
2018-05-04T11:55:07.501Z,26.50
2018-05-04T11:57:36.533Z,26.50
2018-05-04T12:00:05.645Z,25.60
2018-05-04T12:02:34.703Z,25.70
2018-05-04T12:05:03.809Z,26.00
2018-05-04T12:07:32.858Z,26.50
2018-05-04T12:10:02.675Z,23.70
2018-05-04T12:12:31.753Z,23.60
2018-05-04T12:15:01.597Z,23.90
2018-05-04T12:17:30.637Z,23.90
2018-05-04T12:19:59.674Z,24.30
2018-05-04T12:22:28.741Z,24.70
2018-05-04T12:24:58.589Z,22.60
2018-05-04T12:27:27.630Z,22.60
2018-05-04T12:29:56.965Z,23.10
2018-05-04T12:32:26.793Z,22.70
2018-05-04T12:34:55.830Z,22.70
2018-05-04T12:37:24.909Z,22.00
2018-05-04T12:39:53.974Z,22.10
2018-05-04T12:42:23.053Z,21.20
2018-05-04T12:44:52.857Z,22.50
2018-05-04T12:47:22.691Z,20.90
2018-05-04T12:49:51.748Z,20.80
2018-05-04T12:52:20.794Z,21.00
2018-05-04T12:54:49.862Z,20.40
2018-05-04T12:57:19.673Z,19.80
2018-05-04T12:59:49.520Z,20.50
2018-05-04T13:02:18.553Z,20.50
2018-05-04T13:04:47.620Z,20.40
2018-05-04T13:07:16.660Z,20.80
2018-05-04T13:09:46.547Z,20.80
2018-05-04T13:12:15.579Z,20.80
2018-05-04T13:14:45.422Z,19.80
2018-05-04T13:17:14.463Z,19.80
2018-05-04T13:19:43.537Z,20.00
2018-05-04T13:22:12.598Z,19.60
2018-05-04T13:24:41.668Z,20.10
2018-05-04T13:27:11.473Z,20.70
2018-05-04T13:29:41.322Z,19.70
2018-05-04T13:32:10.410Z,19.70
2018-05-04T13:34:39.473Z,20.50
2018-05-04T13:37:08.527Z,20.80
2018-05-04T13:39:37.721Z,20.20
2018-05-04T13:42:06.782Z,18.50
2018-05-04T13:44:35.850Z,19.00
2018-05-04T13:47:04.921Z,18.70
2018-05-04T13:49:33.961Z,19.70
2018-05-04T13:52:03.040Z,18.80
2018-05-04T13:54:32.889Z,17.90
2018-05-04T13:57:01.932Z,17.90
2018-05-04T13:59:31.012Z,17.60
2018-05-04T14:02:00.074Z,18.30
2018-05-04T14:04:29.116Z,20.30
2018-05-04T14:06:58.180Z,19.50
2018-05-04T14:09:27.258Z,20.20
2018-05-04T14:11:56.326Z,22.10
2018-05-04T14:14:25.453Z,23.10
2018-05-04T14:16:54.474Z,24.00
2018-05-04T14:19:24.194Z,23.90
2018-05-04T14:21:53.243Z,24.60
2018-05-04T14:24:22.390Z,23.90
2018-05-04T14:26:51.433Z,24.50
2018-05-04T14:29:20.498Z,25.10
2018-05-04T14:31:50.312Z,25.70
2018-05-04T14:34:20.317Z,25.70
2018-05-04T14:36:49.373Z,25.10
2018-05-04T14:39:18.434Z,25.20
2018-05-04T14:41:47.483Z,25.60
2018-05-04T14:44:16.541Z,24.90
2018-05-04T14:46:45.585Z,25.20
2018-05-04T14:49:15.424Z,25.80
2018-05-04T14:51:45.425Z,25.40
2018-05-04T14:54:15.231Z,27.50
2018-05-04T14:56:45.061Z,28.00
2018-05-04T14:59:14.125Z,28.00
2018-05-04T15:01:43.191Z,29.50
2018-05-04T15:04:12.237Z,31.70
2018-05-04T15:06:42.082Z,34.00
2018-05-04T15:09:11.129Z,34.00
2018-05-04T15:11:40.988Z,36.20
2018-05-04T15:14:10.042Z,36.10
2018-05-04T15:16:39.895Z,36.90
2018-05-04T15:19:09.009Z,36.90
2018-05-04T15:21:38.081Z,37.40
2018-05-04T15:24:07.158Z,37.70
2018-05-04T15:26:36.209Z,38.10
2018-05-04T15:29:05.289Z,38.50
2018-05-04T15:31:34.399Z,39.40
2018-05-04T15:34:03.443Z,38.90
2018-05-04T15:36:32.522Z,39.50
2018-05-04T15:39:02.369Z,38.20
2018-05-04T15:41:31.418Z,38.20
2018-05-04T15:44:01.261Z,38.30
2018-05-04T15:46:30.324Z,38.30
2018-05-04T15:49:05.723Z,42.50
2018-05-04T15:51:40.331Z,42.50
2018-05-04T15:54:09.392Z,42.80
2018-05-04T15:56:39.204Z,40.30
2018-05-04T15:59:09.701Z,40.50
2018-05-04T16:01:38.775Z,40.50
2018-05-04T16:04:07.821Z,40.90
2018-05-04T16:06:37.665Z,43.40
2018-05-04T16:09:06.744Z,43.30
2018-05-04T16:11:35.781Z,41.90
2018-05-04T16:14:04.830Z,41.00
2018-05-04T16:16:33.889Z,40.70
2018-05-04T16:19:02.978Z,40.80
2018-05-04T16:21:32.057Z,41.00
2018-05-04T16:24:01.114Z,40.70
2018-05-04T16:26:30.220Z,40.80
2018-05-04T16:28:59.323Z,40.80
2018-05-04T16:31:28.334Z,41.30
2018-05-04T16:33:57.405Z,40.80
2018-05-04T16:36:26.451Z,41.50
2018-05-04T16:38:55.533Z,41.10
2018-05-04T16:41:24.594Z,40.30
2018-05-04T16:43:53.679Z,40.90
2018-05-04T16:46:28.324Z,40.50
2018-05-04T16:49:03.000Z,41.00
2018-05-04T16:51:32.837Z,42.10
2018-05-04T16:54:01.914Z,42.00
2018-05-04T16:56:31.732Z,42.90
2018-05-04T16:59:00.805Z,42.80
2018-05-04T17:01:29.859Z,43.10
2018-05-04T17:03:58.941Z,44.10
2018-05-04T17:06:28.041Z,45.00
2018-05-04T17:08:57.874Z,45.10
2018-05-04T17:11:26.963Z,45.10
2018-05-04T17:13:56.002Z,45.90
2018-05-04T17:16:25.852Z,46.10
2018-05-04T17:18:54.937Z,46.10
2018-05-04T17:21:23.989Z,46.10
2018-05-04T17:23:53.074Z,46.00
2018-05-04T17:26:22.118Z,46.20
2018-05-04T17:28:51.203Z,46.80
2018-05-04T17:31:21.026Z,47.50
2018-05-04T17:33:50.115Z,47.40
2018-05-04T17:36:19.164Z,47.90
2018-05-04T17:38:48.238Z,49.10
2018-05-04T17:41:17.329Z,49.80
2018-05-04T17:43:46.388Z,50.00
2018-05-04T17:46:16.303Z,50.90
2018-05-04T17:48:46.114Z,51.20
2018-05-04T17:51:15.218Z,51.20
2018-05-04T17:53:44.267Z,52.00
2018-05-04T17:56:13.357Z,52.10
2018-05-04T17:58:42.525Z,52.40
2018-05-04T18:01:11.709Z,53.00
2018-05-04T18:03:40.776Z,53.20
2018-05-04T18:06:10.587Z,53.20
2018-05-04T18:08:40.424Z,53.60
2018-05-04T18:11:09.511Z,53.50
2018-05-04T18:13:38.610Z,53.60
2018-05-04T18:16:07.673Z,53.80
2018-05-04T18:18:36.756Z,54.40
2018-05-04T18:21:06.517Z,54.90
2018-05-04T18:23:35.732Z,55.00
2018-05-04T18:26:05.442Z,55.30
2018-05-04T18:28:34.618Z,55.70
2018-05-04T18:31:03.667Z,55.90
2018-05-04T18:33:32.752Z,55.70
2018-05-04T18:36:01.844Z,55.70
2018-05-04T18:38:30.886Z,56.00
2018-05-04T18:40:59.973Z,56.20
2018-05-04T18:43:30.317Z,56.50
2018-05-04T18:45:59.373Z,56.50
2018-05-04T18:48:34.439Z,57.30
2018-05-04T18:51:03.819Z,57.00
2018-05-04T18:53:33.680Z,57.00
2018-05-04T18:56:02.728Z,57.00
2018-05-04T18:58:32.546Z,57.60
2018-05-04T19:01:02.652Z,57.90
2018-05-04T19:03:31.685Z,57.90
2018-05-04T19:06:00.737Z,58.30
2018-05-04T19:08:29.921Z,58.30
2018-05-04T19:10:59.014Z,58.20
2018-05-04T19:13:28.061Z,58.00
2018-05-04T19:15:57.254Z,58.30
2018-05-04T19:18:26.313Z,58.50
2018-05-04T19:20:55.366Z,58.80
2018-05-04T19:23:24.461Z,59.10
2018-05-04T19:25:53.523Z,59.00
2018-05-04T19:28:24.631Z,59.80
2018-05-04T19:30:53.720Z,59.80
2018-05-04T19:33:22.778Z,60.00
2018-05-04T19:35:51.831Z,60.30
2018-05-04T19:38:21.680Z,60.50
2018-05-04T19:40:50.739Z,60.40
2018-05-04T19:43:21.367Z,61.00
2018-05-04T19:45:51.229Z,61.50
2018-05-04T19:48:20.281Z,61.50
2018-05-04T19:50:50.106Z,62.00
2018-05-04T19:53:19.209Z,61.90
2018-05-04T19:55:48.291Z,62.50
2018-05-04T19:58:18.118Z,63.20
2018-05-04T20:00:47.188Z,63.00
2018-05-04T20:03:17.231Z,63.40
2018-05-04T20:05:46.290Z,63.30
2018-05-04T20:08:15.379Z,63.90
2018-05-04T20:10:45.276Z,64.10
2018-05-04T20:13:15.085Z,64.50
2018-05-04T20:15:44.169Z,64.50
2018-05-04T20:18:13.214Z,64.70
2018-05-04T20:20:43.042Z,64.90
2018-05-04T20:23:12.773Z,64.90
2018-05-04T20:25:41.821Z,65.20
2018-05-04T20:28:10.916Z,65.70
2018-05-04T20:30:39.954Z,66.40
2018-05-04T20:33:08.993Z,66.30
2018-05-04T20:35:38.096Z,66.10
2018-05-04T20:38:07.128Z,66.50
2018-05-04T20:40:36.261Z,66.60
2018-05-04T20:43:05.355Z,67.10
2018-05-04T20:45:34.480Z,67.40
2018-05-04T20:48:04.447Z,69.10
2018-05-04T20:50:33.526Z,68.40
2018-05-04T20:53:02.575Z,68.40
2018-05-04T20:55:31.621Z,68.90
2018-05-04T20:58:00.744Z,69.40
2018-05-04T21:00:29.805Z,69.40
2018-05-04T21:02:58.857Z,69.50
2018-05-04T21:05:27.982Z,69.30
2018-05-04T21:07:57.781Z,70.10
2018-05-04T21:10:27.600Z,70.30
2018-05-04T21:12:57.396Z,70.70
2018-05-04T21:15:27.215Z,70.80
2018-05-04T21:17:57.044Z,71.20
2018-05-04T21:20:26.861Z,71.40
2018-05-04T21:22:56.259Z,71.40
2018-05-04T21:25:25.554Z,71.70
2018-05-04T21:27:55.514Z,71.70
2018-05-04T21:30:25.261Z,71.70
2018-05-04T21:32:55.435Z,72.80
2018-05-04T21:35:24.733Z,72.70
2018-05-04T21:37:53.813Z,72.90
2018-05-04T21:40:22.892Z,73.30
2018-05-04T21:42:51.948Z,73.60
2018-05-04T21:45:20.988Z,73.80
2018-05-04T21:47:50.074Z,74.20
2018-05-04T21:50:19.885Z,74.70
2018-05-04T21:52:48.972Z,74.50
2018-05-04T21:55:18.777Z,75.30
2018-05-04T21:57:48.624Z,75.40
2018-05-04T22:00:17.709Z,75.30
2018-05-04T22:02:46.826Z,75.40
2018-05-04T22:05:15.912Z,75.30
2018-05-04T22:07:44.970Z,75.50
2018-05-04T22:10:14.773Z,76.20
2018-05-04T22:12:43.863Z,75.80
2018-05-04T22:15:12.964Z,76.00
2018-05-04T22:17:42.006Z,76.10
2018-05-04T22:20:11.063Z,76.10
2018-05-04T22:22:40.912Z,76.60
2018-05-04T22:25:10.013Z,76.60
2018-05-04T22:27:39.076Z,76.60
2018-05-04T22:30:09.045Z,77.10
2018-05-04T22:32:38.112Z,77.10
2018-05-04T22:35:07.710Z,77.20
2018-05-04T22:37:36.758Z,77.50
2018-05-04T22:40:06.262Z,78.00
2018-05-04T22:42:35.334Z,77.90
2018-05-04T22:45:04.379Z,77.90
2018-05-04T22:47:34.223Z,78.50
2018-05-04T22:50:03.302Z,78.50
2018-05-04T22:52:32.377Z,78.50
2018-05-04T22:55:02.213Z,79.80
2018-05-04T22:57:31.266Z,78.90
2018-05-04T23:00:00.361Z,79.10
2018-05-04T23:02:29.399Z,79.40
2018-05-04T23:04:58.461Z,79.50
2018-05-04T23:07:28.308Z,79.80
2018-05-04T23:09:57.384Z,79.70
2018-05-04T23:12:26.465Z,80.70
2018-05-04T23:14:56.304Z,80.10
2018-05-04T23:17:25.374Z,80.10
2018-05-04T23:19:54.473Z,80.10
2018-05-04T23:22:30.097Z,80.00
2018-05-04T23:24:59.981Z,79.70
2018-05-04T23:27:29.025Z,79.50
2018-05-04T23:29:58.865Z,79.90
2018-05-04T23:32:27.910Z,79.90
2018-05-04T23:34:56.986Z,80.00
2018-05-04T23:37:27.191Z,79.80
2018-05-04T23:39:56.295Z,79.90
2018-05-04T23:42:25.374Z,80.10
2018-05-04T23:44:54.413Z,80.20
2018-05-04T23:47:23.490Z,80.10
2018-05-04T23:49:52.570Z,80.00
2018-05-04T23:52:21.646Z,79.90
2018-05-04T23:54:51.561Z,80.10
2018-05-04T23:57:20.609Z,80.00
2018-05-04T23:59:49.913Z,80.20
